createdAt,value
2018-09-30T00:01:29.381Z,9.61
2018-09-30T00:03:57.769Z,9.56
2018-09-30T00:06:26.113Z,9.54
2018-09-30T00:08:54.419Z,9.42
2018-09-30T00:11:22.685Z,9.34
2018-09-30T00:13:51.025Z,9.30
2018-09-30T00:16:19.361Z,9.31
2018-09-30T00:18:47.700Z,9.31
2018-09-30T00:21:16.039Z,9.35
2018-09-30T00:23:49.637Z,9.37
2018-09-30T00:26:23.067Z,9.39
2018-09-30T00:28:51.330Z,9.42
2018-09-30T00:31:20.203Z,9.31
2018-09-30T00:33:53.946Z,9.26
2018-09-30T00:36:22.246Z,9.33
2018-09-30T00:38:50.509Z,9.35
2018-09-30T00:41:18.828Z,9.37
2018-09-30T00:43:47.089Z,9.31
2018-09-30T00:46:15.349Z,9.22
2018-09-30T00:48:43.777Z,9.19
2018-09-30T00:51:12.066Z,9.21
2018-09-30T00:53:40.398Z,9.04
2018-09-30T00:56:08.702Z,8.93
2018-09-30T00:58:37.004Z,8.90
2018-09-30T01:01:05.310Z,8.91
2018-09-30T01:03:33.602Z,8.99
2018-09-30T01:06:01.890Z,9.01
2018-09-30T01:08:30.157Z,9.04
2018-09-30T01:10:58.499Z,9.00
2018-09-30T01:13:26.790Z,8.94
2018-09-30T01:15:55.042Z,8.85
2018-09-30T01:18:23.334Z,8.81
2018-09-30T01:20:51.599Z,8.79
2018-09-30T01:23:19.866Z,8.81
2018-09-30T01:25:48.393Z,8.77
2018-09-30T01:28:16.650Z,8.78
2018-09-30T01:30:44.907Z,8.83
2018-09-30T01:33:13.278Z,8.81
2018-09-30T01:35:41.562Z,8.79
2018-09-30T01:38:09.838Z,8.72
2018-09-30T01:40:38.157Z,8.67
2018-09-30T01:43:06.409Z,8.65
2018-09-30T01:45:34.689Z,8.67
2018-09-30T01:48:02.969Z,8.70
2018-09-30T01:50:31.264Z,8.66
2018-09-30T01:52:59.579Z,8.60
2018-09-30T01:55:28.241Z,8.55
2018-09-30T01:57:56.612Z,8.47
2018-09-30T02:00:24.854Z,8.48
2018-09-30T02:02:53.154Z,8.55
2018-09-30T02:05:21.406Z,8.60
2018-09-30T02:07:49.709Z,8.65
2018-09-30T02:10:18.515Z,8.66
2018-09-30T02:12:46.882Z,8.64
2018-09-30T02:15:15.178Z,8.56
2018-09-30T02:17:43.590Z,8.50
2018-09-30T02:20:11.861Z,8.51
2018-09-30T02:22:40.455Z,8.45
2018-09-30T02:25:08.778Z,8.42
2018-09-30T02:27:37.062Z,8.38
2018-09-30T02:30:05.808Z,8.22
2018-09-30T02:32:34.123Z,8.17
2018-09-30T02:35:02.475Z,8.09
2018-09-30T02:37:30.745Z,7.94
2018-09-30T02:39:59.147Z,7.95
2018-09-30T02:42:27.464Z,8.02
2018-09-30T02:44:55.743Z,8.12
2018-09-30T02:47:24.032Z,8.16
2018-09-30T02:49:52.304Z,8.18
2018-09-30T02:52:20.588Z,8.17
2018-09-30T02:54:48.890Z,8.06
2018-09-30T02:57:17.355Z,7.94
2018-09-30T02:59:45.626Z,7.91
2018-09-30T03:02:14.043Z,7.86
2018-09-30T03:04:42.310Z,7.80
2018-09-30T03:07:15.806Z,7.65
2018-09-30T03:09:44.323Z,7.69
2018-09-30T03:12:12.638Z,7.77
2018-09-30T03:14:41.027Z,7.71
2018-09-30T03:17:09.326Z,7.60
2018-09-30T03:19:37.596Z,7.51
2018-09-30T03:22:06.138Z,7.45
2018-09-30T03:24:34.394Z,7.41
2018-09-30T03:27:02.678Z,7.37
2018-09-30T03:29:31.122Z,7.25
2018-09-30T03:31:59.446Z,7.23
2018-09-30T03:34:27.738Z,7.15
2018-09-30T03:36:56.039Z,7.17
2018-09-30T03:39:24.419Z,7.17
2018-09-30T03:41:52.740Z,7.17
2018-09-30T03:44:21.038Z,7.24
2018-09-30T03:46:49.302Z,7.23
2018-09-30T03:49:17.591Z,7.34
2018-09-30T03:51:45.921Z,7.37
2018-09-30T03:54:14.210Z,7.36
2018-09-30T03:56:42.576Z,7.34
2018-09-30T03:59:10.875Z,7.38
2018-09-30T04:01:39.146Z,7.53
2018-09-30T04:04:07.427Z,7.61
2018-09-30T04:06:35.754Z,7.67
2018-09-30T04:09:04.591Z,7.75
2018-09-30T04:11:32.852Z,7.80
2018-09-30T04:14:01.175Z,7.81
2018-09-30T04:16:29.445Z,7.83
2018-09-30T04:18:57.703Z,7.83
2018-09-30T04:21:26.034Z,7.86
2018-09-30T04:23:59.586Z,7.87
2018-09-30T04:26:27.881Z,7.77
2018-09-30T04:28:56.150Z,7.66
2018-09-30T04:31:24.402Z,7.53
2018-09-30T04:33:52.690Z,7.45
2018-09-30T04:36:20.970Z,7.34
2018-09-30T04:38:49.242Z,7.28
2018-09-30T04:41:17.597Z,7.38
2018-09-30T04:43:45.938Z,7.48
2018-09-30T04:46:14.202Z,7.41
2018-09-30T04:48:42.626Z,7.29
2018-09-30T04:51:10.902Z,7.22
2018-09-30T04:53:39.166Z,7.24
2018-09-30T04:56:07.477Z,7.28
2018-09-30T04:58:35.946Z,7.17
2018-09-30T05:01:04.210Z,7.08
2018-09-30T05:03:32.490Z,7.10
2018-09-30T05:06:00.826Z,7.16
2018-09-30T05:08:29.128Z,7.10
2018-09-30T05:10:57.454Z,7.06
2018-09-30T05:13:25.738Z,6.96
2018-09-30T05:15:54.060Z,7.01
2018-09-30T05:18:22.306Z,7.08
2018-09-30T05:20:50.589Z,7.05
2018-09-30T05:23:18.863Z,7.05
2018-09-30T05:25:47.303Z,7.06
2018-09-30T05:28:15.547Z,7.02
2018-09-30T05:30:43.820Z,7.06
2018-09-30T05:33:12.124Z,7.15
2018-09-30T05:35:40.402Z,7.24
2018-09-30T05:38:08.762Z,7.33
2018-09-30T05:40:37.062Z,7.40
2018-09-30T05:43:05.326Z,7.45
2018-09-30T05:45:33.598Z,7.54
2018-09-30T05:48:01.907Z,7.56
2018-09-30T05:50:30.199Z,7.54
2018-09-30T05:52:58.457Z,7.48
2018-09-30T05:55:26.757Z,7.38
2018-09-30T05:57:55.083Z,7.43
2018-09-30T06:00:23.426Z,7.49
2018-09-30T06:02:51.742Z,7.56
2018-09-30T06:05:20.022Z,7.58
2018-09-30T06:07:48.361Z,7.61
2018-09-30T06:10:16.781Z,7.59
2018-09-30T06:12:45.779Z,7.70
2018-09-30T06:15:14.115Z,7.80
2018-09-30T06:17:42.627Z,7.81
2018-09-30T06:20:11.077Z,7.87
2018-09-30T06:22:39.347Z,8.02
2018-09-30T06:25:07.945Z,8.11
2018-09-30T06:27:36.308Z,8.18
2018-09-30T06:30:04.688Z,8.32
2018-09-30T06:32:33.002Z,8.46
2018-09-30T06:35:01.353Z,8.51
2018-09-30T06:37:29.611Z,8.63
2018-09-30T06:39:58.020Z,8.69
2018-09-30T06:42:26.371Z,8.80
2018-09-30T06:44:54.788Z,8.87
2018-09-30T06:47:23.134Z,8.93
2018-09-30T06:49:51.523Z,8.96
2018-09-30T06:52:19.801Z,8.95
2018-09-30T06:54:48.163Z,8.98
2018-09-30T06:57:16.551Z,9.10
2018-09-30T06:59:44.933Z,9.25
2018-09-30T07:02:15.673Z,9.32
2018-09-30T07:04:44.235Z,9.42
2018-09-30T07:07:12.725Z,9.54
2018-09-30T07:09:41.129Z,9.69
2018-09-30T07:12:09.494Z,9.78
2018-09-30T07:14:37.926Z,9.87
2018-09-30T07:17:06.314Z,9.91
2018-09-30T07:19:34.619Z,9.92
2018-09-30T07:22:02.968Z,9.99
2018-09-30T07:24:31.318Z,9.98
2018-09-30T07:26:59.758Z,10.08
2018-09-30T07:29:28.125Z,10.13
2018-09-30T07:31:56.550Z,10.19
2018-09-30T07:34:25.402Z,10.36
2018-09-30T07:36:53.881Z,10.50
2018-09-30T07:39:22.294Z,10.59
2018-09-30T07:41:50.721Z,10.71
2018-09-30T07:44:19.006Z,10.81
2018-09-30T07:46:47.589Z,10.89
2018-09-30T07:49:15.830Z,10.97
2018-09-30T07:51:50.982Z,11.06
2018-09-30T07:54:19.401Z,11.11
2018-09-30T07:56:48.775Z,11.17
2018-09-30T07:59:17.217Z,11.27
2018-09-30T08:01:45.535Z,11.34
2018-09-30T08:04:18.612Z,11.38
2018-09-30T08:06:46.961Z,11.42
2018-09-30T08:09:15.253Z,11.42
2018-09-30T08:11:43.702Z,11.50
2018-09-30T08:14:11.998Z,11.56
2018-09-30T08:16:40.291Z,11.56
2018-09-30T08:19:08.674Z,11.56
2018-09-30T08:21:37.859Z,11.56
2018-09-30T08:24:06.257Z,11.65
2018-09-30T08:26:34.499Z,11.77
2018-09-30T08:29:02.888Z,11.81
2018-09-30T08:31:31.327Z,11.93
2018-09-30T08:33:59.951Z,12.03
2018-09-30T08:36:28.450Z,12.08
2018-09-30T08:38:56.865Z,12.17
2018-09-30T08:41:25.250Z,12.29
2018-09-30T08:43:53.977Z,12.41
2018-09-30T08:46:22.320Z,12.52
2018-09-30T08:48:50.805Z,12.67
2018-09-30T08:51:19.660Z,12.81
2018-09-30T08:53:48.470Z,12.87
2018-09-30T08:56:17.531Z,12.95
2018-09-30T08:58:45.821Z,13.06
2018-09-30T09:01:14.204Z,13.17
2018-09-30T09:03:42.641Z,13.28
2018-09-30T09:06:11.791Z,13.38
2018-09-30T09:08:40.299Z,13.50
2018-09-30T09:11:10.721Z,13.59
2018-09-30T09:13:39.301Z,13.65
2018-09-30T09:16:07.641Z,13.73
2018-09-30T09:18:41.353Z,13.81
2018-09-30T09:21:09.729Z,13.94
2018-09-30T09:23:38.946Z,14.06
2018-09-30T09:26:07.735Z,14.15
2018-09-30T09:28:36.226Z,14.30
2018-09-30T09:31:04.533Z,14.42
2018-09-30T09:33:32.865Z,14.55
2018-09-30T09:36:01.149Z,14.62
2018-09-30T09:38:29.555Z,14.71
2018-09-30T09:40:57.976Z,14.87
2018-09-30T09:43:26.483Z,15.03
2018-09-30T09:45:54.775Z,15.15
2018-09-30T09:48:23.458Z,15.24
2018-09-30T09:50:52.229Z,15.35
2018-09-30T09:53:20.627Z,15.52
2018-09-30T09:55:49.090Z,15.70
2018-09-30T09:58:17.461Z,15.82
2018-09-30T10:00:46.173Z,15.91
2018-09-30T10:03:16.037Z,16.01
2018-09-30T10:05:45.103Z,16.10
2018-09-30T10:08:13.844Z,16.19
2018-09-30T10:10:42.298Z,16.30
2018-09-30T10:13:10.795Z,16.39
2018-09-30T10:15:39.205Z,16.49
2018-09-30T10:18:07.582Z,16.61
2018-09-30T10:20:35.879Z,16.73
2018-09-30T10:23:04.792Z,16.81
2018-09-30T10:25:33.213Z,16.85
2018-09-30T10:28:03.551Z,16.94
2018-09-30T10:30:32.035Z,17.03
2018-09-30T10:33:00.519Z,17.13
2018-09-30T10:35:28.953Z,17.29
2018-09-30T10:37:57.423Z,17.42
2018-09-30T10:40:25.823Z,17.53
2018-09-30T10:42:54.227Z,17.58
2018-09-30T10:45:22.667Z,17.68
2018-09-30T10:47:51.022Z,17.74
2018-09-30T10:50:19.355Z,17.73
2018-09-30T10:52:47.647Z,17.67
2018-09-30T10:55:15.987Z,17.67
2018-09-30T10:57:44.702Z,17.77
2018-09-30T11:00:13.005Z,17.88
2018-09-30T11:02:41.345Z,17.98
2018-09-30T11:05:09.753Z,18.07
2018-09-30T11:07:38.117Z,18.15
2018-09-30T11:10:07.111Z,18.23
2018-09-30T11:12:35.343Z,18.33
2018-09-30T11:15:03.851Z,18.46
2018-09-30T11:17:32.255Z,18.56
2018-09-30T11:20:01.137Z,18.60
2018-09-30T11:22:29.528Z,18.73
2018-09-30T11:24:58.527Z,18.92
2018-09-30T11:27:27.046Z,19.08
2018-09-30T11:29:56.167Z,19.21
2018-09-30T11:32:24.675Z,19.35
2018-09-30T11:34:54.243Z,19.48
2018-09-30T11:37:22.527Z,19.50
2018-09-30T11:39:50.839Z,19.64
2018-09-30T11:42:19.275Z,19.71
2018-09-30T11:44:48.244Z,19.80
2018-09-30T11:47:16.574Z,19.88
2018-09-30T11:49:45.585Z,19.93
2018-09-30T11:52:14.949Z,20.01
2018-09-30T11:54:43.627Z,20.05
2018-09-30T11:57:13.397Z,20.07
2018-09-30T11:59:42.470Z,20.09
2018-09-30T12:02:11.077Z,20.17
2018-09-30T12:04:39.509Z,20.19
2018-09-30T12:07:07.809Z,20.20
2018-09-30T12:09:38.299Z,20.33
2018-09-30T12:12:06.714Z,20.44
2018-09-30T12:14:35.071Z,20.55
2018-09-30T12:17:03.674Z,20.56
2018-09-30T12:19:32.078Z,20.52
2018-09-30T12:22:00.416Z,20.52
2018-09-30T12:24:28.968Z,20.54
2018-09-30T12:26:57.455Z,20.62
2018-09-30T12:29:25.856Z,20.63
2018-09-30T12:31:54.345Z,20.65
2018-09-30T12:34:22.725Z,20.77
2018-09-30T12:36:51.094Z,20.92
2018-09-30T12:39:19.481Z,21.06
2018-09-30T12:41:47.721Z,21.16
2018-09-30T12:44:16.019Z,21.27
2018-09-30T12:46:44.539Z,21.35
2018-09-30T12:49:12.877Z,21.45
2018-09-30T12:51:41.341Z,21.51
2018-09-30T12:54:09.959Z,21.60
2018-09-30T12:56:38.250Z,21.62
2018-09-30T12:59:06.559Z,21.58
2018-09-30T13:01:34.913Z,21.61
2018-09-30T13:04:03.633Z,21.65
2018-09-30T13:06:31.945Z,21.69
2018-09-30T13:09:00.358Z,21.75
2018-09-30T13:11:28.738Z,21.85
2018-09-30T13:13:57.085Z,21.92
2018-09-30T13:16:25.493Z,21.98
2018-09-30T13:18:53.817Z,22.02
2018-09-30T13:21:22.210Z,22.03
2018-09-30T13:23:50.619Z,22.03
2018-09-30T13:26:19.042Z,21.98
2018-09-30T13:28:47.375Z,21.94
2018-09-30T13:31:16.042Z,21.94
2018-09-30T13:33:44.442Z,22.00
2018-09-30T13:36:12.863Z,22.10
2018-09-30T13:38:41.246Z,22.16
2018-09-30T13:41:10.613Z,22.27
2018-09-30T13:43:38.745Z,22.30
2018-09-30T13:46:07.212Z,22.31
2018-09-30T13:48:35.518Z,22.39
2018-09-30T13:51:03.912Z,22.47
2018-09-30T13:53:32.462Z,22.50
2018-09-30T13:56:00.958Z,22.53
2018-09-30T13:58:29.431Z,22.55
2018-09-30T14:00:58.217Z,22.53
2018-09-30T14:03:26.601Z,22.49
2018-09-30T14:05:54.926Z,22.41
2018-09-30T14:08:23.303Z,22.37
2018-09-30T14:10:51.626Z,22.34
2018-09-30T14:13:19.997Z,22.37
2018-09-30T14:15:48.486Z,22.44
2018-09-30T14:18:16.866Z,22.48
2018-09-30T14:20:45.190Z,22.53
2018-09-30T14:23:13.687Z,22.56
2018-09-30T14:25:42.090Z,22.55
2018-09-30T14:28:10.498Z,22.54
2018-09-30T14:30:38.891Z,22.56
2018-09-30T14:33:07.446Z,22.58
2018-09-30T14:35:35.814Z,22.59
2018-09-30T14:38:04.280Z,22.59
2018-09-30T14:40:32.674Z,22.58
2018-09-30T14:43:01.057Z,22.61
2018-09-30T14:45:29.514Z,22.65
2018-09-30T14:47:58.129Z,22.69
2018-09-30T14:50:26.570Z,22.66
2018-09-30T14:52:54.886Z,22.63
2018-09-30T14:55:23.264Z,22.61
2018-09-30T14:57:51.627Z,22.61
2018-09-30T15:00:20.051Z,22.57
2018-09-30T15:02:48.467Z,22.54
2018-09-30T15:05:16.754Z,22.51
2018-09-30T15:07:45.182Z,22.51
2018-09-30T15:10:14.079Z,22.47
2018-09-30T15:12:42.426Z,22.44
2018-09-30T15:15:10.838Z,22.40
2018-09-30T15:17:45.935Z,22.37
2018-09-30T15:20:14.718Z,22.35
2018-09-30T15:22:43.087Z,22.34
2018-09-30T15:25:11.494Z,22.33
2018-09-30T15:27:39.971Z,22.28
2018-09-30T15:30:08.387Z,22.25
2018-09-30T15:32:36.663Z,22.20
2018-09-30T15:35:05.155Z,22.18
2018-09-30T15:37:33.683Z,22.13
2018-09-30T15:40:03.071Z,22.09
2018-09-30T15:42:31.518Z,22.06
2018-09-30T15:44:59.859Z,22.00
2018-09-30T15:47:28.199Z,21.93
2018-09-30T15:49:56.625Z,21.88
2018-09-30T15:52:25.069Z,21.82
2018-09-30T15:54:53.882Z,21.75
2018-09-30T15:57:22.580Z,21.71
2018-09-30T15:59:51.000Z,21.66
2018-09-30T16:02:19.521Z,21.62
2018-09-30T16:04:47.875Z,21.56
2018-09-30T16:07:16.161Z,21.47
2018-09-30T16:09:44.461Z,21.36
2018-09-30T16:12:15.781Z,21.30
2018-09-30T16:14:44.068Z,21.21
2018-09-30T16:17:12.468Z,21.15
2018-09-30T16:19:40.841Z,21.06
2018-09-30T16:22:09.263Z,20.97
2018-09-30T16:24:37.646Z,20.87
2018-09-30T16:27:06.246Z,20.77
2018-09-30T16:29:34.543Z,20.67
2018-09-30T16:32:03.002Z,20.60
2018-09-30T16:34:31.323Z,20.50
2018-09-30T16:36:59.726Z,20.43
2018-09-30T16:39:28.149Z,20.35
2018-09-30T16:41:56.915Z,20.25
2018-09-30T16:44:25.275Z,20.12
2018-09-30T16:46:53.548Z,20.00
2018-09-30T16:49:21.875Z,19.83
2018-09-30T16:51:50.466Z,19.70
2018-09-30T16:54:19.279Z,19.65
2018-09-30T16:56:47.702Z,19.59
2018-09-30T16:59:15.949Z,19.54
2018-09-30T17:01:44.281Z,19.39
2018-09-30T17:04:12.786Z,19.32
2018-09-30T17:06:41.148Z,19.17
2018-09-30T17:09:09.423Z,18.98
2018-09-30T17:11:37.997Z,18.84
2018-09-30T17:14:06.383Z,18.77
2018-09-30T17:16:34.862Z,18.75
2018-09-30T17:19:03.550Z,18.76
2018-09-30T17:21:31.939Z,18.75
2018-09-30T17:24:00.213Z,18.70
2018-09-30T17:26:28.723Z,18.66
2018-09-30T17:28:57.051Z,18.64
2018-09-30T17:31:25.467Z,18.58
2018-09-30T17:33:54.017Z,18.56
2018-09-30T17:36:22.578Z,18.53
2018-09-30T17:38:50.878Z,18.48
2018-09-30T17:41:19.295Z,18.45
2018-09-30T17:43:47.659Z,18.41
2018-09-30T17:46:16.012Z,18.36
2018-09-30T17:48:44.505Z,18.32
2018-09-30T17:51:12.887Z,18.30
2018-09-30T17:53:41.257Z,18.23
2018-09-30T17:56:09.619Z,18.18
2018-09-30T17:58:38.011Z,18.11
2018-09-30T18:01:06.597Z,18.07
2018-09-30T18:03:35.102Z,18.03
2018-09-30T18:06:03.462Z,18.00
2018-09-30T18:08:31.847Z,17.94
2018-09-30T18:11:00.360Z,17.82
2018-09-30T18:13:28.629Z,17.68
2018-09-30T18:15:56.943Z,17.61
2018-09-30T18:18:25.382Z,17.60
2018-09-30T18:20:53.753Z,17.54
2018-09-30T18:23:22.109Z,17.44
2018-09-30T18:25:50.497Z,17.37
2018-09-30T18:28:18.843Z,17.35
2018-09-30T18:30:47.237Z,17.31
2018-09-30T18:33:15.717Z,17.21
2018-09-30T18:35:44.089Z,17.22
2018-09-30T18:38:12.465Z,17.25
2018-09-30T18:40:43.705Z,17.23
2018-09-30T18:43:12.474Z,17.27
2018-09-30T18:45:41.036Z,17.17
2018-09-30T18:48:09.970Z,17.00
2018-09-30T18:50:38.491Z,16.97
2018-09-30T18:53:07.255Z,16.93
2018-09-30T18:55:41.994Z,16.77
2018-09-30T18:58:10.367Z,16.68
2018-09-30T19:00:38.713Z,16.70
2018-09-30T19:03:07.079Z,16.74
2018-09-30T19:05:35.432Z,16.67
2018-09-30T19:08:03.763Z,16.68
2018-09-30T19:10:32.183Z,16.66
2018-09-30T19:13:00.521Z,16.56
2018-09-30T19:15:28.905Z,16.49
2018-09-30T19:17:57.257Z,16.49
2018-09-30T19:20:25.687Z,16.56
2018-09-30T19:22:53.986Z,16.59
2018-09-30T19:25:22.315Z,16.60
2018-09-30T19:27:50.627Z,16.61
2018-09-30T19:30:18.947Z,16.61
2018-09-30T19:32:47.420Z,16.59
2018-09-30T19:35:15.855Z,16.60
2018-09-30T19:37:44.187Z,16.49
2018-09-30T19:40:12.665Z,16.38
2018-09-30T19:42:41.059Z,16.34
2018-09-30T19:45:09.380Z,16.38
2018-09-30T19:47:37.703Z,16.43
2018-09-30T19:50:06.056Z,16.41
2018-09-30T19:52:34.471Z,16.38
2018-09-30T19:55:02.946Z,16.38
2018-09-30T19:57:31.287Z,16.35
2018-09-30T19:59:59.794Z,16.31
2018-09-30T20:02:28.226Z,16.36
2018-09-30T20:04:56.550Z,16.27
2018-09-30T20:07:24.950Z,16.11
2018-09-30T20:09:53.784Z,16.09
2018-09-30T20:12:22.213Z,16.07
2018-09-30T20:14:51.108Z,16.06
2018-09-30T20:17:19.584Z,16.01
2018-09-30T20:19:47.975Z,16.01
2018-09-30T20:22:16.346Z,16.02
2018-09-30T20:24:44.723Z,15.96
2018-09-30T20:27:12.966Z,15.87
2018-09-30T20:29:41.298Z,15.80
2018-09-30T20:32:09.850Z,15.71
2018-09-30T20:34:38.163Z,15.52
2018-09-30T20:37:06.574Z,15.43
2018-09-30T20:39:34.941Z,15.46
2018-09-30T20:42:03.222Z,15.53
2018-09-30T20:44:31.541Z,15.59
2018-09-30T20:47:00.686Z,15.59
2018-09-30T20:49:29.101Z,15.61
2018-09-30T20:51:57.504Z,15.67
2018-09-30T20:54:25.826Z,15.65
2018-09-30T20:56:54.880Z,15.60
2018-09-30T20:59:23.461Z,15.56
2018-09-30T21:01:51.856Z,15.47
2018-09-30T21:04:20.134Z,15.35
2018-09-30T21:06:48.405Z,15.18
2018-09-30T21:09:18.203Z,15.14
2018-09-30T21:11:46.580Z,15.25
2018-09-30T21:14:14.958Z,15.32
2018-09-30T21:16:43.466Z,15.35
2018-09-30T21:19:11.907Z,15.38
2018-09-30T21:21:40.381Z,15.36
2018-09-30T21:24:09.494Z,15.32
2018-09-30T21:26:37.811Z,15.36
2018-09-30T21:29:06.130Z,15.34
2018-09-30T21:31:34.561Z,15.24
2018-09-30T21:34:02.900Z,15.18
2018-09-30T21:36:31.186Z,15.19
2018-09-30T21:38:59.730Z,15.19
2018-09-30T21:41:28.138Z,15.18
2018-09-30T21:43:56.617Z,15.15
2018-09-30T21:46:25.018Z,15.14
2018-09-30T21:48:53.450Z,15.12
2018-09-30T21:51:21.632Z,15.09
2018-09-30T21:53:50.062Z,15.09
2018-09-30T21:56:18.421Z,15.16
2018-09-30T21:58:46.882Z,15.22
2018-09-30T22:01:15.677Z,15.22
2018-09-30T22:03:43.937Z,15.24
2018-09-30T22:06:12.223Z,15.25
2018-09-30T22:08:40.537Z,15.23
2018-09-30T22:11:08.855Z,15.12
2018-09-30T22:13:37.171Z,15.02
2018-09-30T22:16:05.587Z,14.98
2018-09-30T22:18:33.912Z,15.05
2018-09-30T22:21:02.302Z,15.10
2018-09-30T22:23:30.634Z,15.09
2018-09-30T22:25:58.928Z,15.19
2018-09-30T22:28:27.238Z,15.27
2018-09-30T22:30:55.555Z,15.30
2018-09-30T22:33:23.875Z,15.30
2018-09-30T22:35:52.188Z,15.33
2018-09-30T22:38:20.506Z,15.37
2018-09-30T22:40:48.934Z,15.39
2018-09-30T22:43:17.289Z,15.39
2018-09-30T22:45:45.782Z,15.36
2018-09-30T22:48:14.143Z,15.34
2018-09-30T22:50:42.550Z,15.32
2018-09-30T22:53:11.031Z,15.32
2018-09-30T22:55:39.462Z,15.30
2018-09-30T22:58:07.726Z,15.26
2018-09-30T23:00:36.042Z,15.24
2018-09-30T23:03:04.513Z,15.22
2018-09-30T23:05:32.788Z,15.18
2018-09-30T23:08:01.200Z,15.11
2018-09-30T23:10:29.550Z,15.05
2018-09-30T23:12:58.040Z,15.01
2018-09-30T23:15:26.542Z,14.96
2018-09-30T23:17:54.990Z,14.96
2018-09-30T23:20:23.261Z,14.95
2018-09-30T23:22:51.562Z,14.92
2018-09-30T23:25:19.927Z,14.88
2018-09-30T23:27:48.273Z,14.84
2018-09-30T23:30:16.590Z,14.90
2018-09-30T23:32:44.926Z,14.89
2018-09-30T23:35:13.226Z,14.90
2018-09-30T23:37:41.578Z,14.91
2018-09-30T23:40:09.905Z,14.93
2018-09-30T23:42:38.463Z,14.90
2018-09-30T23:45:06.960Z,14.86
2018-09-30T23:47:35.295Z,14.82
2018-09-30T23:50:03.657Z,14.83
2018-09-30T23:52:31.978Z,14.88
2018-09-30T23:55:00.353Z,14.92
2018-09-30T23:57:28.623Z,14.95
2018-09-30T23:59:57.335Z,14.92
